<?xml version="1.0" encoding="UTF-8" standalone="no" ?>
<gpx xmlns="http://www.topografix.com/GPX/1/1" xmlns:xsi="http://www.w3.org/2001/XMLSchema-instance" xsi:schemaLocation="http://www.topografix.com/GPX/1/1 http://www.topografix.com/GPX/1/1/gpx.xsd" version="1.1" creator="VisuGPX - https://www.visugpx.com">
  <metadata>
    <name>Belley / Forêt d'Andert1</name>
    <desc><![CDATA[Ain - Bugey.
Boucle au départ de Belley.
Passage à Bois de Chazey, Rothonod, La Parolière, Forêt d'Andert, Andert, Bilignin.]]></desc>
  </metadata>
  <trk>
    <name><![CDATA[14040447-Belley / Forêt d'Andert1]]></name>
    <extensions>
      <line xmlns="http://www.topografix.com/GPX/gpx_style/0/2">
        <color>0000FF</color>
        <width>4</width>
      </line>
    </extensions>
    <trkseg>
      <trkpt lat="45.75804" lon="5.68931">
        <ele>281</ele>
        <time>2022-01-19T22:55:03Z</time>
      </trkpt>
      <trkpt lat="45.75812" lon="5.68909">
        <ele>280</ele>
        <time>2022-01-19T22:55:07Z</time>
      </trkpt>
      <trkpt lat="45.75799" lon="5.68908">
        <ele>280</ele>
        <time>2022-01-19T22:55:10Z</time>
      </trkpt>
      <trkpt lat="45.75777" lon="5.68901">
        <ele>280</ele>
        <time>2022-01-19T22:55:15Z</time>
      </trkpt>
      <trkpt lat="45.75782" lon="5.68884">
        <ele>280</ele>
        <time>2022-01-19T22:55:18Z</time>
      </trkpt>
      <trkpt lat="45.7578" lon="5.68874">
        <ele>280</ele>
        <time>2022-01-19T22:55:20Z</time>
      </trkpt>
      <trkpt lat="45.75774" lon="5.68863">
        <ele>280</ele>
        <time>2022-01-19T22:55:22Z</time>
      </trkpt>
      <trkpt lat="45.75789" lon="5.68828">
        <ele>279</ele>
        <time>2022-01-19T22:55:29Z</time>
      </trkpt>
      <trkpt lat="45.75742" lon="5.6879">
        <ele>280</ele>
        <time>2022-01-19T22:55:42Z</time>
      </trkpt>
      <trkpt lat="45.75706" lon="5.68767">
        <ele>281</ele>
        <time>2022-01-19T22:55:51Z</time>
      </trkpt>
      <trkpt lat="45.75696" lon="5.68765">
        <ele>282</ele>
        <time>2022-01-19T22:55:53Z</time>
      </trkpt>
      <trkpt lat="45.75686" lon="5.68759">
        <ele>282</ele>
        <time>2022-01-19T22:55:56Z</time>
      </trkpt>
      <trkpt lat="45.75598" lon="5.68664">
        <ele>286</ele>
        <time>2022-01-19T22:56:21Z</time>
      </trkpt>
      <trkpt lat="45.75592" lon="5.68651">
        <ele>287</ele>
        <time>2022-01-19T22:56:24Z</time>
      </trkpt>
      <trkpt lat="45.75559" lon="5.68522">
        <ele>289</ele>
        <time>2022-01-19T22:56:46Z</time>
      </trkpt>
      <trkpt lat="45.75551" lon="5.68475">
        <ele>289</ele>
        <time>2022-01-19T22:56:54Z</time>
      </trkpt>
      <trkpt lat="45.75563" lon="5.68392">
        <ele>288</ele>
        <time>2022-01-19T22:57:08Z</time>
      </trkpt>
      <trkpt lat="45.7557" lon="5.68377">
        <ele>288</ele>
        <time>2022-01-19T22:57:11Z</time>
      </trkpt>
      <trkpt lat="45.75578" lon="5.68375">
        <ele>287</ele>
        <time>2022-01-19T22:57:13Z</time>
      </trkpt>
      <trkpt lat="45.75581" lon="5.68364">
        <ele>287</ele>
        <time>2022-01-19T22:57:15Z</time>
      </trkpt>
      <trkpt lat="45.75573" lon="5.68349">
        <ele>287</ele>
        <time>2022-01-19T22:57:18Z</time>
      </trkpt>
      <trkpt lat="45.75574" lon="5.68333">
        <ele>287</ele>
        <time>2022-01-19T22:57:21Z</time>
      </trkpt>
      <trkpt lat="45.75602" lon="5.68166">
        <ele>289</ele>
        <time>2022-01-19T22:57:48Z</time>
      </trkpt>
      <trkpt lat="45.75616" lon="5.68119">
        <ele>288</ele>
        <time>2022-01-19T22:57:57Z</time>
      </trkpt>
      <trkpt lat="45.75629" lon="5.68093">
        <ele>287</ele>
        <time>2022-01-19T22:58:02Z</time>
      </trkpt>
      <trkpt lat="45.7567" lon="5.68034">
        <ele>285</ele>
        <time>2022-01-19T22:58:16Z</time>
      </trkpt>
      <trkpt lat="45.75732" lon="5.67911">
        <ele>288</ele>
        <time>2022-01-19T22:58:40Z</time>
      </trkpt>
      <trkpt lat="45.75749" lon="5.67882">
        <ele>289</ele>
        <time>2022-01-19T22:58:47Z</time>
      </trkpt>
      <trkpt lat="45.75767" lon="5.67855">
        <ele>291</ele>
        <time>2022-01-19T22:58:53Z</time>
      </trkpt>
      <trkpt lat="45.75777" lon="5.67845">
        <ele>292</ele>
        <time>2022-01-19T22:58:55Z</time>
      </trkpt>
      <trkpt lat="45.75804" lon="5.67882">
        <ele>291</ele>
        <time>2022-01-19T22:59:04Z</time>
      </trkpt>
      <trkpt lat="45.75893" lon="5.67992">
        <ele>289</ele>
        <time>2022-01-19T22:59:32Z</time>
      </trkpt>
      <trkpt lat="45.75954" lon="5.6807">
        <ele>287</ele>
        <time>2022-01-19T22:59:51Z</time>
      </trkpt>
      <trkpt lat="45.76087" lon="5.68236">
        <ele>289</ele>
        <time>2022-01-19T23:00:32Z</time>
      </trkpt>
      <trkpt lat="45.76093" lon="5.6825">
        <ele>290</ele>
        <time>2022-01-19T23:00:35Z</time>
      </trkpt>
      <trkpt lat="45.761" lon="5.68246">
        <ele>290</ele>
        <time>2022-01-19T23:00:36Z</time>
      </trkpt>
      <trkpt lat="45.76112" lon="5.6823">
        <ele>292</ele>
        <time>2022-01-19T23:00:40Z</time>
      </trkpt>
      <trkpt lat="45.7613" lon="5.68195">
        <ele>294</ele>
        <time>2022-01-19T23:00:47Z</time>
      </trkpt>
      <trkpt lat="45.7616" lon="5.68147">
        <ele>300</ele>
        <time>2022-01-19T23:00:58Z</time>
      </trkpt>
      <trkpt lat="45.76185" lon="5.68182">
        <ele>301</ele>
        <time>2022-01-19T23:01:06Z</time>
      </trkpt>
      <trkpt lat="45.76226" lon="5.68228">
        <ele>303</ele>
        <time>2022-01-19T23:01:18Z</time>
      </trkpt>
      <trkpt lat="45.7627" lon="5.68271">
        <ele>304</ele>
        <time>2022-01-19T23:01:30Z</time>
      </trkpt>
      <trkpt lat="45.7628" lon="5.68277">
        <ele>305</ele>
        <time>2022-01-19T23:01:33Z</time>
      </trkpt>
      <trkpt lat="45.76291" lon="5.68276">
        <ele>306</ele>
        <time>2022-01-19T23:01:36Z</time>
      </trkpt>
      <trkpt lat="45.76307" lon="5.68287">
        <ele>307</ele>
        <time>2022-01-19T23:01:40Z</time>
      </trkpt>
      <trkpt lat="45.76349" lon="5.68343">
        <ele>306</ele>
        <time>2022-01-19T23:01:53Z</time>
      </trkpt>
      <trkpt lat="45.76357" lon="5.68355">
        <ele>307</ele>
        <time>2022-01-19T23:01:56Z</time>
      </trkpt>
      <trkpt lat="45.76362" lon="5.68369">
        <ele>307</ele>
        <time>2022-01-19T23:01:58Z</time>
      </trkpt>
      <trkpt lat="45.76396" lon="5.68361">
        <ele>311</ele>
        <time>2022-01-19T23:02:06Z</time>
      </trkpt>
      <trkpt lat="45.76518" lon="5.68346">
        <ele>327</ele>
        <time>2022-01-19T23:02:35Z</time>
      </trkpt>
      <trkpt lat="45.76523" lon="5.68351">
        <ele>326</ele>
        <time>2022-01-19T23:02:36Z</time>
      </trkpt>
      <trkpt lat="45.7654" lon="5.6836">
        <ele>326</ele>
        <time>2022-01-19T23:02:41Z</time>
      </trkpt>
      <trkpt lat="45.76582" lon="5.68364">
        <ele>328</ele>
        <time>2022-01-19T23:02:51Z</time>
      </trkpt>
      <trkpt lat="45.76588" lon="5.68374">
        <ele>328</ele>
        <time>2022-01-19T23:02:53Z</time>
      </trkpt>
      <trkpt lat="45.76598" lon="5.68359">
        <ele>328</ele>
        <time>2022-01-19T23:02:56Z</time>
      </trkpt>
      <trkpt lat="45.76621" lon="5.68346">
        <ele>328</ele>
        <time>2022-01-19T23:03:02Z</time>
      </trkpt>
      <trkpt lat="45.7663" lon="5.68347">
        <ele>328</ele>
        <time>2022-01-19T23:03:04Z</time>
      </trkpt>
      <trkpt lat="45.76728" lon="5.68391">
        <ele>328</ele>
        <time>2022-01-19T23:03:28Z</time>
      </trkpt>
      <trkpt lat="45.76745" lon="5.68396">
        <ele>327</ele>
        <time>2022-01-19T23:03:32Z</time>
      </trkpt>
      <trkpt lat="45.76755" lon="5.68394">
        <ele>327</ele>
        <time>2022-01-19T23:03:34Z</time>
      </trkpt>
      <trkpt lat="45.76769" lon="5.68383">
        <ele>326</ele>
        <time>2022-01-19T23:03:38Z</time>
      </trkpt>
      <trkpt lat="45.76796" lon="5.68355">
        <ele>325</ele>
        <time>2022-01-19T23:03:46Z</time>
      </trkpt>
      <trkpt lat="45.76839" lon="5.68316">
        <ele>325</ele>
        <time>2022-01-19T23:03:58Z</time>
      </trkpt>
      <trkpt lat="45.76848" lon="5.68313">
        <ele>325</ele>
        <time>2022-01-19T23:04:00Z</time>
      </trkpt>
      <trkpt lat="45.76869" lon="5.68316">
        <ele>325</ele>
        <time>2022-01-19T23:04:05Z</time>
      </trkpt>
      <trkpt lat="45.76924" lon="5.68316">
        <ele>325</ele>
        <time>2022-01-19T23:04:18Z</time>
      </trkpt>
      <trkpt lat="45.76956" lon="5.6831">
        <ele>325</ele>
        <time>2022-01-19T23:04:25Z</time>
      </trkpt>
      <trkpt lat="45.77005" lon="5.68293">
        <ele>324</ele>
        <time>2022-01-19T23:04:37Z</time>
      </trkpt>
      <trkpt lat="45.77009" lon="5.68288">
        <ele>324</ele>
        <time>2022-01-19T23:04:38Z</time>
      </trkpt>
      <trkpt lat="45.77012" lon="5.68272">
        <ele>325</ele>
        <time>2022-01-19T23:04:41Z</time>
      </trkpt>
      <trkpt lat="45.77011" lon="5.68227">
        <ele>326</ele>
        <time>2022-01-19T23:04:48Z</time>
      </trkpt>
      <trkpt lat="45.77015" lon="5.68217">
        <ele>327</ele>
        <time>2022-01-19T23:04:50Z</time>
      </trkpt>
      <trkpt lat="45.77021" lon="5.68213">
        <ele>327</ele>
        <time>2022-01-19T23:04:52Z</time>
      </trkpt>
      <trkpt lat="45.77038" lon="5.68214">
        <ele>326</ele>
        <time>2022-01-19T23:04:56Z</time>
      </trkpt>
      <trkpt lat="45.77109" lon="5.68243">
        <ele>324</ele>
        <time>2022-01-19T23:05:13Z</time>
      </trkpt>
      <trkpt lat="45.77122" lon="5.68246">
        <ele>324</ele>
        <time>2022-01-19T23:05:16Z</time>
      </trkpt>
      <trkpt lat="45.77214" lon="5.68243">
        <ele>326</ele>
        <time>2022-01-19T23:05:37Z</time>
      </trkpt>
      <trkpt lat="45.77234" lon="5.68251">
        <ele>326</ele>
        <time>2022-01-19T23:05:42Z</time>
      </trkpt>
      <trkpt lat="45.77244" lon="5.68256">
        <ele>326</ele>
        <time>2022-01-19T23:05:45Z</time>
      </trkpt>
      <trkpt lat="45.77255" lon="5.68262">
        <ele>326</ele>
        <time>2022-01-19T23:05:48Z</time>
      </trkpt>
      <trkpt lat="45.77263" lon="5.68272">
        <ele>325</ele>
        <time>2022-01-19T23:05:50Z</time>
      </trkpt>
      <trkpt lat="45.7728" lon="5.68297">
        <ele>323</ele>
        <time>2022-01-19T23:05:56Z</time>
      </trkpt>
      <trkpt lat="45.77287" lon="5.68312">
        <ele>322</ele>
        <time>2022-01-19T23:05:59Z</time>
      </trkpt>
      <trkpt lat="45.77296" lon="5.68321">
        <ele>321</ele>
        <time>2022-01-19T23:06:01Z</time>
      </trkpt>
      <trkpt lat="45.77307" lon="5.68326">
        <ele>321</ele>
        <time>2022-01-19T23:06:04Z</time>
      </trkpt>
      <trkpt lat="45.77314" lon="5.68324">
        <ele>321</ele>
        <time>2022-01-19T23:06:06Z</time>
      </trkpt>
      <trkpt lat="45.77327" lon="5.68308">
        <ele>321</ele>
        <time>2022-01-19T23:06:10Z</time>
      </trkpt>
      <trkpt lat="45.77345" lon="5.68281">
        <ele>319</ele>
        <time>2022-01-19T23:06:16Z</time>
      </trkpt>
      <trkpt lat="45.77354" lon="5.68281">
        <ele>317</ele>
        <time>2022-01-19T23:06:18Z</time>
      </trkpt>
      <trkpt lat="45.77367" lon="5.683">
        <ele>314</ele>
        <time>2022-01-19T23:06:22Z</time>
      </trkpt>
      <trkpt lat="45.77379" lon="5.68317">
        <ele>311</ele>
        <time>2022-01-19T23:06:26Z</time>
      </trkpt>
      <trkpt lat="45.77387" lon="5.68327">
        <ele>309</ele>
        <time>2022-01-19T23:06:28Z</time>
      </trkpt>
      <trkpt lat="45.77396" lon="5.6833">
        <ele>307</ele>
        <time>2022-01-19T23:06:31Z</time>
      </trkpt>
      <trkpt lat="45.77406" lon="5.68329">
        <ele>305</ele>
        <time>2022-01-19T23:06:33Z</time>
      </trkpt>
      <trkpt lat="45.77414" lon="5.68316">
        <ele>303</ele>
        <time>2022-01-19T23:06:36Z</time>
      </trkpt>
      <trkpt lat="45.77424" lon="5.68306">
        <ele>301</ele>
        <time>2022-01-19T23:06:39Z</time>
      </trkpt>
      <trkpt lat="45.77436" lon="5.68304">
        <ele>297</ele>
        <time>2022-01-19T23:06:41Z</time>
      </trkpt>
      <trkpt lat="45.77446" lon="5.68308">
        <ele>294</ele>
        <time>2022-01-19T23:06:44Z</time>
      </trkpt>
      <trkpt lat="45.7745" lon="5.6832">
        <ele>293</ele>
        <time>2022-01-19T23:06:46Z</time>
      </trkpt>
      <trkpt lat="45.7745" lon="5.68333">
        <ele>292</ele>
        <time>2022-01-19T23:06:48Z</time>
      </trkpt>
      <trkpt lat="45.77464" lon="5.68338">
        <ele>288</ele>
        <time>2022-01-19T23:06:52Z</time>
      </trkpt>
      <trkpt lat="45.77473" lon="5.68325">
        <ele>286</ele>
        <time>2022-01-19T23:06:55Z</time>
      </trkpt>
      <trkpt lat="45.7749" lon="5.68304">
        <ele>282</ele>
        <time>2022-01-19T23:07:00Z</time>
      </trkpt>
      <trkpt lat="45.77514" lon="5.68272">
        <ele>278</ele>
        <time>2022-01-19T23:07:07Z</time>
      </trkpt>
      <trkpt lat="45.7754" lon="5.68227">
        <ele>274</ele>
        <time>2022-01-19T23:07:17Z</time>
      </trkpt>
      <trkpt lat="45.77548" lon="5.68216">
        <ele>272</ele>
        <time>2022-01-19T23:07:20Z</time>
      </trkpt>
      <trkpt lat="45.77559" lon="5.6822">
        <ele>269</ele>
        <time>2022-01-19T23:07:22Z</time>
      </trkpt>
      <trkpt lat="45.77593" lon="5.68232">
        <ele>262</ele>
        <time>2022-01-19T23:07:30Z</time>
      </trkpt>
      <trkpt lat="45.77612" lon="5.68239">
        <ele>262</ele>
        <time>2022-01-19T23:07:35Z</time>
      </trkpt>
      <trkpt lat="45.7762" lon="5.68202">
        <ele>261</ele>
        <time>2022-01-19T23:07:41Z</time>
      </trkpt>
      <trkpt lat="45.77629" lon="5.68174">
        <ele>261</ele>
        <time>2022-01-19T23:07:46Z</time>
      </trkpt>
      <trkpt lat="45.7765" lon="5.68126">
        <ele>260</ele>
        <time>2022-01-19T23:07:55Z</time>
      </trkpt>
      <trkpt lat="45.77684" lon="5.68069">
        <ele>258</ele>
        <time>2022-01-19T23:08:08Z</time>
      </trkpt>
      <trkpt lat="45.77706" lon="5.68037">
        <ele>258</ele>
        <time>2022-01-19T23:08:15Z</time>
      </trkpt>
      <trkpt lat="45.7777" lon="5.67961">
        <ele>256</ele>
        <time>2022-01-19T23:08:34Z</time>
      </trkpt>
      <trkpt lat="45.77831" lon="5.68025">
        <ele>253</ele>
        <time>2022-01-19T23:08:52Z</time>
      </trkpt>
      <trkpt lat="45.7785" lon="5.68041">
        <ele>252</ele>
        <time>2022-01-19T23:08:57Z</time>
      </trkpt>
      <trkpt lat="45.77861" lon="5.68048">
        <ele>251</ele>
        <time>2022-01-19T23:09:00Z</time>
      </trkpt>
      <trkpt lat="45.77924" lon="5.68072">
        <ele>245</ele>
        <time>2022-01-19T23:09:15Z</time>
      </trkpt>
      <trkpt lat="45.77937" lon="5.68062">
        <ele>243</ele>
        <time>2022-01-19T23:09:19Z</time>
      </trkpt>
      <trkpt lat="45.77962" lon="5.68045">
        <ele>241</ele>
        <time>2022-01-19T23:09:25Z</time>
      </trkpt>
      <trkpt lat="45.77997" lon="5.68029">
        <ele>238</ele>
        <time>2022-01-19T23:09:34Z</time>
      </trkpt>
      <trkpt lat="45.78028" lon="5.68012">
        <ele>238</ele>
        <time>2022-01-19T23:09:42Z</time>
      </trkpt>
      <trkpt lat="45.78053" lon="5.67997">
        <ele>239</ele>
        <time>2022-01-19T23:09:48Z</time>
      </trkpt>
      <trkpt lat="45.78081" lon="5.6798">
        <ele>239</ele>
        <time>2022-01-19T23:09:55Z</time>
      </trkpt>
      <trkpt lat="45.78101" lon="5.67966">
        <ele>240</ele>
        <time>2022-01-19T23:10:00Z</time>
      </trkpt>
      <trkpt lat="45.78122" lon="5.67949">
        <ele>242</ele>
        <time>2022-01-19T23:10:06Z</time>
      </trkpt>
      <trkpt lat="45.78134" lon="5.67939">
        <ele>242</ele>
        <time>2022-01-19T23:10:09Z</time>
      </trkpt>
      <trkpt lat="45.78149" lon="5.67928">
        <ele>244</ele>
        <time>2022-01-19T23:10:13Z</time>
      </trkpt>
      <trkpt lat="45.78177" lon="5.6791">
        <ele>247</ele>
        <time>2022-01-19T23:10:20Z</time>
      </trkpt>
      <trkpt lat="45.78183" lon="5.67903">
        <ele>248</ele>
        <time>2022-01-19T23:10:22Z</time>
      </trkpt>
      <trkpt lat="45.78193" lon="5.67885">
        <ele>250</ele>
        <time>2022-01-19T23:10:26Z</time>
      </trkpt>
      <trkpt lat="45.78199" lon="5.67904">
        <ele>250</ele>
        <time>2022-01-19T23:10:29Z</time>
      </trkpt>
      <trkpt lat="45.78205" lon="5.67921">
        <ele>250</ele>
        <time>2022-01-19T23:10:32Z</time>
      </trkpt>
      <trkpt lat="45.78216" lon="5.67944">
        <ele>250</ele>
        <time>2022-01-19T23:10:37Z</time>
      </trkpt>
      <trkpt lat="45.78232" lon="5.67975">
        <ele>250</ele>
        <time>2022-01-19T23:10:43Z</time>
      </trkpt>
      <trkpt lat="45.78253" lon="5.68016">
        <ele>248</ele>
        <time>2022-01-19T23:10:51Z</time>
      </trkpt>
      <trkpt lat="45.78266" lon="5.68034">
        <ele>247</ele>
        <time>2022-01-19T23:10:55Z</time>
      </trkpt>
      <trkpt lat="45.78277" lon="5.68051">
        <ele>246</ele>
        <time>2022-01-19T23:10:59Z</time>
      </trkpt>
      <trkpt lat="45.78292" lon="5.68069">
        <ele>245</ele>
        <time>2022-01-19T23:11:04Z</time>
      </trkpt>
      <trkpt lat="45.78309" lon="5.68087">
        <ele>244</ele>
        <time>2022-01-19T23:11:09Z</time>
      </trkpt>
      <trkpt lat="45.78328" lon="5.68103">
        <ele>244</ele>
        <time>2022-01-19T23:11:14Z</time>
      </trkpt>
      <trkpt lat="45.78344" lon="5.68116">
        <ele>245</ele>
        <time>2022-01-19T23:11:18Z</time>
      </trkpt>
      <trkpt lat="45.78371" lon="5.68134">
        <ele>246</ele>
        <time>2022-01-19T23:11:25Z</time>
      </trkpt>
      <trkpt lat="45.78398" lon="5.6815">
        <ele>246</ele>
        <time>2022-01-19T23:11:32Z</time>
      </trkpt>
      <trkpt lat="45.78424" lon="5.68164">
        <ele>246</ele>
        <time>2022-01-19T23:11:38Z</time>
      </trkpt>
      <trkpt lat="45.78454" lon="5.68177">
        <ele>245</ele>
        <time>2022-01-19T23:11:46Z</time>
      </trkpt>
      <trkpt lat="45.78474" lon="5.68182">
        <ele>246</ele>
        <time>2022-01-19T23:11:51Z</time>
      </trkpt>
      <trkpt lat="45.78497" lon="5.68187">
        <ele>246</ele>
        <time>2022-01-19T23:11:56Z</time>
      </trkpt>
      <trkpt lat="45.78516" lon="5.68188">
        <ele>245</ele>
        <time>2022-01-19T23:12:00Z</time>
      </trkpt>
      <trkpt lat="45.7854" lon="5.68187">
        <ele>245</ele>
        <time>2022-01-19T23:12:06Z</time>
      </trkpt>
      <trkpt lat="45.78568" lon="5.68186">
        <ele>245</ele>
        <time>2022-01-19T23:12:13Z</time>
      </trkpt>
      <trkpt lat="45.78587" lon="5.6819">
        <ele>244</ele>
        <time>2022-01-19T23:12:17Z</time>
      </trkpt>
      <trkpt lat="45.78605" lon="5.68196">
        <ele>240</ele>
        <time>2022-01-19T23:12:21Z</time>
      </trkpt>
      <trkpt lat="45.78623" lon="5.68167">
        <ele>241</ele>
        <time>2022-01-19T23:12:28Z</time>
      </trkpt>
      <trkpt lat="45.7864" lon="5.68134">
        <ele>243</ele>
        <time>2022-01-19T23:12:34Z</time>
      </trkpt>
      <trkpt lat="45.78658" lon="5.68094">
        <ele>243</ele>
        <time>2022-01-19T23:12:42Z</time>
      </trkpt>
      <trkpt lat="45.78667" lon="5.68064">
        <ele>243</ele>
        <time>2022-01-19T23:12:47Z</time>
      </trkpt>
      <trkpt lat="45.78676" lon="5.68014">
        <ele>246</ele>
        <time>2022-01-19T23:12:56Z</time>
      </trkpt>
      <trkpt lat="45.78677" lon="5.67958">
        <ele>246</ele>
        <time>2022-01-19T23:13:05Z</time>
      </trkpt>
      <trkpt lat="45.78678" lon="5.67905">
        <ele>243</ele>
        <time>2022-01-19T23:13:14Z</time>
      </trkpt>
      <trkpt lat="45.78678" lon="5.67889">
        <ele>242</ele>
        <time>2022-01-19T23:13:16Z</time>
      </trkpt>
      <trkpt lat="45.78675" lon="5.67845">
        <ele>239</ele>
        <time>2022-01-19T23:13:23Z</time>
      </trkpt>
      <trkpt lat="45.78646" lon="5.67771">
        <ele>242</ele>
        <time>2022-01-19T23:13:37Z</time>
      </trkpt>
      <trkpt lat="45.78663" lon="5.67782">
        <ele>239</ele>
        <time>2022-01-19T23:13:42Z</time>
      </trkpt>
      <trkpt lat="45.78678" lon="5.67772">
        <ele>237</ele>
        <time>2022-01-19T23:13:45Z</time>
      </trkpt>
      <trkpt lat="45.78685" lon="5.67771">
        <ele>237</ele>
        <time>2022-01-19T23:13:47Z</time>
      </trkpt>
      <trkpt lat="45.78698" lon="5.67755">
        <ele>237</ele>
        <time>2022-01-19T23:13:51Z</time>
      </trkpt>
      <trkpt lat="45.78714" lon="5.67751">
        <ele>237</ele>
        <time>2022-01-19T23:13:55Z</time>
      </trkpt>
      <trkpt lat="45.78727" lon="5.67752">
        <ele>237</ele>
        <time>2022-01-19T23:13:58Z</time>
      </trkpt>
      <trkpt lat="45.78742" lon="5.67748">
        <ele>237</ele>
        <time>2022-01-19T23:14:01Z</time>
      </trkpt>
      <trkpt lat="45.78751" lon="5.67749">
        <ele>237</ele>
        <time>2022-01-19T23:14:04Z</time>
      </trkpt>
      <trkpt lat="45.78759" lon="5.67757">
        <ele>237</ele>
        <time>2022-01-19T23:14:06Z</time>
      </trkpt>
      <trkpt lat="45.7877" lon="5.6778">
        <ele>236</ele>
        <time>2022-01-19T23:14:10Z</time>
      </trkpt>
      <trkpt lat="45.78776" lon="5.67823">
        <ele>234</ele>
        <time>2022-01-19T23:14:18Z</time>
      </trkpt>
      <trkpt lat="45.7879" lon="5.67846">
        <ele>233</ele>
        <time>2022-01-19T23:14:23Z</time>
      </trkpt>
      <trkpt lat="45.78813" lon="5.67859">
        <ele>232</ele>
        <time>2022-01-19T23:14:28Z</time>
      </trkpt>
      <trkpt lat="45.78824" lon="5.67856">
        <ele>232</ele>
        <time>2022-01-19T23:14:31Z</time>
      </trkpt>
      <trkpt lat="45.78831" lon="5.67849">
        <ele>232</ele>
        <time>2022-01-19T23:14:33Z</time>
      </trkpt>
      <trkpt lat="45.7884" lon="5.67832">
        <ele>233</ele>
        <time>2022-01-19T23:14:36Z</time>
      </trkpt>
      <trkpt lat="45.7885" lon="5.67804">
        <ele>234</ele>
        <time>2022-01-19T23:14:41Z</time>
      </trkpt>
      <trkpt lat="45.78857" lon="5.67799">
        <ele>234</ele>
        <time>2022-01-19T23:14:43Z</time>
      </trkpt>
      <trkpt lat="45.78866" lon="5.67799">
        <ele>234</ele>
        <time>2022-01-19T23:14:45Z</time>
      </trkpt>
      <trkpt lat="45.78876" lon="5.67802">
        <ele>234</ele>
        <time>2022-01-19T23:14:48Z</time>
      </trkpt>
      <trkpt lat="45.78887" lon="5.67818">
        <ele>233</ele>
        <time>2022-01-19T23:14:51Z</time>
      </trkpt>
      <trkpt lat="45.78911" lon="5.67835">
        <ele>232</ele>
        <time>2022-01-19T23:14:58Z</time>
      </trkpt>
      <trkpt lat="45.78929" lon="5.67843">
        <ele>232</ele>
        <time>2022-01-19T23:15:02Z</time>
      </trkpt>
      <trkpt lat="45.7896" lon="5.67852">
        <ele>232</ele>
        <time>2022-01-19T23:15:10Z</time>
      </trkpt>
      <trkpt lat="45.78971" lon="5.67861">
        <ele>232</ele>
        <time>2022-01-19T23:15:12Z</time>
      </trkpt>
      <trkpt lat="45.78997" lon="5.67899">
        <ele>231</ele>
        <time>2022-01-19T23:15:21Z</time>
      </trkpt>
      <trkpt lat="45.79012" lon="5.67912">
        <ele>231</ele>
        <time>2022-01-19T23:15:25Z</time>
      </trkpt>
      <trkpt lat="45.79031" lon="5.67912">
        <ele>231</ele>
        <time>2022-01-19T23:15:30Z</time>
      </trkpt>
      <trkpt lat="45.79043" lon="5.67909">
        <ele>231</ele>
        <time>2022-01-19T23:15:33Z</time>
      </trkpt>
      <trkpt lat="45.79059" lon="5.67898">
        <ele>230</ele>
        <time>2022-01-19T23:15:37Z</time>
      </trkpt>
      <trkpt lat="45.79078" lon="5.67869">
        <ele>230</ele>
        <time>2022-01-19T23:15:43Z</time>
      </trkpt>
      <trkpt lat="45.79107" lon="5.67862">
        <ele>230</ele>
        <time>2022-01-19T23:15:50Z</time>
      </trkpt>
      <trkpt lat="45.79162" lon="5.67855">
        <ele>231</ele>
        <time>2022-01-19T23:16:03Z</time>
      </trkpt>
      <trkpt lat="45.79176" lon="5.67859">
        <ele>231</ele>
        <time>2022-01-19T23:16:06Z</time>
      </trkpt>
      <trkpt lat="45.79172" lon="5.67692">
        <ele>237</ele>
        <time>2022-01-19T23:16:33Z</time>
      </trkpt>
      <trkpt lat="45.79178" lon="5.6754">
        <ele>245</ele>
        <time>2022-01-19T23:16:58Z</time>
      </trkpt>
      <trkpt lat="45.79178" lon="5.67496">
        <ele>249</ele>
        <time>2022-01-19T23:17:05Z</time>
      </trkpt>
      <trkpt lat="45.7918" lon="5.67476">
        <ele>251</ele>
        <time>2022-01-19T23:17:09Z</time>
      </trkpt>
      <trkpt lat="45.79183" lon="5.67456">
        <ele>252</ele>
        <time>2022-01-19T23:17:12Z</time>
      </trkpt>
      <trkpt lat="45.79191" lon="5.67422">
        <ele>255</ele>
        <time>2022-01-19T23:17:18Z</time>
      </trkpt>
      <trkpt lat="45.79197" lon="5.67401">
        <ele>256</ele>
        <time>2022-01-19T23:17:22Z</time>
      </trkpt>
      <trkpt lat="45.79208" lon="5.67368">
        <ele>258</ele>
        <time>2022-01-19T23:17:28Z</time>
      </trkpt>
      <trkpt lat="45.7922" lon="5.67324">
        <ele>259</ele>
        <time>2022-01-19T23:17:35Z</time>
      </trkpt>
      <trkpt lat="45.79238" lon="5.6727">
        <ele>258</ele>
        <time>2022-01-19T23:17:45Z</time>
      </trkpt>
      <trkpt lat="45.79244" lon="5.67241">
        <ele>258</ele>
        <time>2022-01-19T23:17:50Z</time>
      </trkpt>
      <trkpt lat="45.79257" lon="5.6718">
        <ele>260</ele>
        <time>2022-01-19T23:18:00Z</time>
      </trkpt>
      <trkpt lat="45.79272" lon="5.67111">
        <ele>262</ele>
        <time>2022-01-19T23:18:12Z</time>
      </trkpt>
      <trkpt lat="45.79279" lon="5.67081">
        <ele>262</ele>
        <time>2022-01-19T23:18:17Z</time>
      </trkpt>
      <trkpt lat="45.79296" lon="5.67031">
        <ele>264</ele>
        <time>2022-01-19T23:18:26Z</time>
      </trkpt>
      <trkpt lat="45.79321" lon="5.66977">
        <ele>263</ele>
        <time>2022-01-19T23:18:37Z</time>
      </trkpt>
      <trkpt lat="45.79336" lon="5.66943">
        <ele>264</ele>
        <time>2022-01-19T23:18:43Z</time>
      </trkpt>
      <trkpt lat="45.79345" lon="5.66922">
        <ele>265</ele>
        <time>2022-01-19T23:18:47Z</time>
      </trkpt>
      <trkpt lat="45.79359" lon="5.66873">
        <ele>266</ele>
        <time>2022-01-19T23:18:56Z</time>
      </trkpt>
      <trkpt lat="45.7937" lon="5.66839">
        <ele>265</ele>
        <time>2022-01-19T23:19:02Z</time>
      </trkpt>
      <trkpt lat="45.79385" lon="5.66802">
        <ele>265</ele>
        <time>2022-01-19T23:19:09Z</time>
      </trkpt>
      <trkpt lat="45.79398" lon="5.66758">
        <ele>266</ele>
        <time>2022-01-19T23:19:17Z</time>
      </trkpt>
      <trkpt lat="45.79388" lon="5.66733">
        <ele>270</ele>
        <time>2022-01-19T23:19:22Z</time>
      </trkpt>
      <trkpt lat="45.79388" lon="5.66692">
        <ele>274</ele>
        <time>2022-01-19T23:19:28Z</time>
      </trkpt>
      <trkpt lat="45.79357" lon="5.66654">
        <ele>280</ele>
        <time>2022-01-19T23:19:38Z</time>
      </trkpt>
      <trkpt lat="45.7934" lon="5.66625">
        <ele>282</ele>
        <time>2022-01-19T23:19:44Z</time>
      </trkpt>
      <trkpt lat="45.79336" lon="5.66599">
        <ele>283</ele>
        <time>2022-01-19T23:19:48Z</time>
      </trkpt>
      <trkpt lat="45.7934" lon="5.66562">
        <ele>282</ele>
        <time>2022-01-19T23:19:54Z</time>
      </trkpt>
      <trkpt lat="45.79334" lon="5.66536">
        <ele>282</ele>
        <time>2022-01-19T23:19:59Z</time>
      </trkpt>
      <trkpt lat="45.79318" lon="5.6653">
        <ele>282</ele>
        <time>2022-01-19T23:20:03Z</time>
      </trkpt>
      <trkpt lat="45.79265" lon="5.66537">
        <ele>285</ele>
        <time>2022-01-19T23:20:15Z</time>
      </trkpt>
      <trkpt lat="45.79236" lon="5.66523">
        <ele>286</ele>
        <time>2022-01-19T23:20:22Z</time>
      </trkpt>
      <trkpt lat="45.79224" lon="5.66523">
        <ele>287</ele>
        <time>2022-01-19T23:20:25Z</time>
      </trkpt>
      <trkpt lat="45.79216" lon="5.66526">
        <ele>288</ele>
        <time>2022-01-19T23:20:27Z</time>
      </trkpt>
      <trkpt lat="45.79199" lon="5.66576">
        <ele>290</ele>
        <time>2022-01-19T23:20:36Z</time>
      </trkpt>
      <trkpt lat="45.79182" lon="5.66611">
        <ele>291</ele>
        <time>2022-01-19T23:20:43Z</time>
      </trkpt>
      <trkpt lat="45.79183" lon="5.66638">
        <ele>291</ele>
        <time>2022-01-19T23:20:47Z</time>
      </trkpt>
      <trkpt lat="45.79177" lon="5.66663">
        <ele>290</ele>
        <time>2022-01-19T23:20:52Z</time>
      </trkpt>
      <trkpt lat="45.79159" lon="5.66678">
        <ele>292</ele>
        <time>2022-01-19T23:20:57Z</time>
      </trkpt>
      <trkpt lat="45.79155" lon="5.66691">
        <ele>293</ele>
        <time>2022-01-19T23:20:59Z</time>
      </trkpt>
      <trkpt lat="45.79164" lon="5.66724">
        <ele>293</ele>
        <time>2022-01-19T23:21:05Z</time>
      </trkpt>
      <trkpt lat="45.79174" lon="5.66757">
        <ele>293</ele>
        <time>2022-01-19T23:21:10Z</time>
      </trkpt>
      <trkpt lat="45.79176" lon="5.6682">
        <ele>292</ele>
        <time>2022-01-19T23:21:21Z</time>
      </trkpt>
      <trkpt lat="45.79182" lon="5.66844">
        <ele>292</ele>
        <time>2022-01-19T23:21:25Z</time>
      </trkpt>
      <trkpt lat="45.79189" lon="5.66871">
        <ele>291</ele>
        <time>2022-01-19T23:21:30Z</time>
      </trkpt>
      <trkpt lat="45.79201" lon="5.66921">
        <ele>289</ele>
        <time>2022-01-19T23:21:38Z</time>
      </trkpt>
      <trkpt lat="45.79191" lon="5.66949">
        <ele>289</ele>
        <time>2022-01-19T23:21:43Z</time>
      </trkpt>
      <trkpt lat="45.79187" lon="5.66984">
        <ele>288</ele>
        <time>2022-01-19T23:21:49Z</time>
      </trkpt>
      <trkpt lat="45.79182" lon="5.67005">
        <ele>287</ele>
        <time>2022-01-19T23:21:53Z</time>
      </trkpt>
      <trkpt lat="45.79177" lon="5.6703">
        <ele>286</ele>
        <time>2022-01-19T23:21:57Z</time>
      </trkpt>
      <trkpt lat="45.79183" lon="5.67052">
        <ele>284</ele>
        <time>2022-01-19T23:22:01Z</time>
      </trkpt>
      <trkpt lat="45.79182" lon="5.67076">
        <ele>283</ele>
        <time>2022-01-19T23:22:05Z</time>
      </trkpt>
      <trkpt lat="45.79172" lon="5.67099">
        <ele>283</ele>
        <time>2022-01-19T23:22:09Z</time>
      </trkpt>
      <trkpt lat="45.79127" lon="5.67178">
        <ele>285</ele>
        <time>2022-01-19T23:22:26Z</time>
      </trkpt>
      <trkpt lat="45.79103" lon="5.67195">
        <ele>284</ele>
        <time>2022-01-19T23:22:32Z</time>
      </trkpt>
      <trkpt lat="45.79069" lon="5.67212">
        <ele>284</ele>
        <time>2022-01-19T23:22:40Z</time>
      </trkpt>
      <trkpt lat="45.7904" lon="5.67221">
        <ele>283</ele>
        <time>2022-01-19T23:22:47Z</time>
      </trkpt>
      <trkpt lat="45.79008" lon="5.67223">
        <ele>282</ele>
        <time>2022-01-19T23:22:55Z</time>
      </trkpt>
      <trkpt lat="45.78969" lon="5.67215">
        <ele>283</ele>
        <time>2022-01-19T23:23:04Z</time>
      </trkpt>
      <trkpt lat="45.78959" lon="5.67217">
        <ele>282</ele>
        <time>2022-01-19T23:23:06Z</time>
      </trkpt>
      <trkpt lat="45.78954" lon="5.6723">
        <ele>281</ele>
        <time>2022-01-19T23:23:09Z</time>
      </trkpt>
      <trkpt lat="45.7895" lon="5.67252">
        <ele>278</ele>
        <time>2022-01-19T23:23:12Z</time>
      </trkpt>
      <trkpt lat="45.78946" lon="5.67287">
        <ele>274</ele>
        <time>2022-01-19T23:23:18Z</time>
      </trkpt>
      <trkpt lat="45.78939" lon="5.67326">
        <ele>270</ele>
        <time>2022-01-19T23:23:25Z</time>
      </trkpt>
      <trkpt lat="45.78927" lon="5.6734">
        <ele>269</ele>
        <time>2022-01-19T23:23:28Z</time>
      </trkpt>
      <trkpt lat="45.78908" lon="5.67353">
        <ele>268</ele>
        <time>2022-01-19T23:23:33Z</time>
      </trkpt>
      <trkpt lat="45.78902" lon="5.67345">
        <ele>268</ele>
        <time>2022-01-19T23:23:35Z</time>
      </trkpt>
      <trkpt lat="45.78893" lon="5.67339">
        <ele>268</ele>
        <time>2022-01-19T23:23:38Z</time>
      </trkpt>
      <trkpt lat="45.78816" lon="5.6731">
        <ele>269</ele>
        <time>2022-01-19T23:23:56Z</time>
      </trkpt>
      <trkpt lat="45.78807" lon="5.67304">
        <ele>270</ele>
        <time>2022-01-19T23:23:58Z</time>
      </trkpt>
      <trkpt lat="45.7877" lon="5.67245">
        <ele>275</ele>
        <time>2022-01-19T23:24:11Z</time>
      </trkpt>
      <trkpt lat="45.7876" lon="5.67233">
        <ele>276</ele>
        <time>2022-01-19T23:24:14Z</time>
      </trkpt>
      <trkpt lat="45.78708" lon="5.67181">
        <ele>279</ele>
        <time>2022-01-19T23:24:29Z</time>
      </trkpt>
      <trkpt lat="45.78686" lon="5.6716">
        <ele>279</ele>
        <time>2022-01-19T23:24:35Z</time>
      </trkpt>
      <trkpt lat="45.78662" lon="5.67133">
        <ele>280</ele>
        <time>2022-01-19T23:24:43Z</time>
      </trkpt>
      <trkpt lat="45.78634" lon="5.67103">
        <ele>282</ele>
        <time>2022-01-19T23:24:51Z</time>
      </trkpt>
      <trkpt lat="45.78617" lon="5.67082">
        <ele>283</ele>
        <time>2022-01-19T23:24:56Z</time>
      </trkpt>
      <trkpt lat="45.78607" lon="5.67067">
        <ele>284</ele>
        <time>2022-01-19T23:24:59Z</time>
      </trkpt>
      <trkpt lat="45.78602" lon="5.67052">
        <ele>285</ele>
        <time>2022-01-19T23:25:02Z</time>
      </trkpt>
      <trkpt lat="45.78604" lon="5.67039">
        <ele>286</ele>
        <time>2022-01-19T23:25:04Z</time>
      </trkpt>
      <trkpt lat="45.78607" lon="5.67015">
        <ele>287</ele>
        <time>2022-01-19T23:25:08Z</time>
      </trkpt>
      <trkpt lat="45.78606" lon="5.67001">
        <ele>288</ele>
        <time>2022-01-19T23:25:10Z</time>
      </trkpt>
      <trkpt lat="45.78589" lon="5.66918">
        <ele>291</ele>
        <time>2022-01-19T23:25:25Z</time>
      </trkpt>
      <trkpt lat="45.78568" lon="5.66909">
        <ele>290</ele>
        <time>2022-01-19T23:25:30Z</time>
      </trkpt>
      <trkpt lat="45.78561" lon="5.66902">
        <ele>290</ele>
        <time>2022-01-19T23:25:32Z</time>
      </trkpt>
      <trkpt lat="45.78552" lon="5.66889">
        <ele>290</ele>
        <time>2022-01-19T23:25:35Z</time>
      </trkpt>
      <trkpt lat="45.78528" lon="5.66842">
        <ele>291</ele>
        <time>2022-01-19T23:25:44Z</time>
      </trkpt>
      <trkpt lat="45.78521" lon="5.66824">
        <ele>292</ele>
        <time>2022-01-19T23:25:47Z</time>
      </trkpt>
      <trkpt lat="45.78509" lon="5.66804">
        <ele>292</ele>
        <time>2022-01-19T23:25:52Z</time>
      </trkpt>
      <trkpt lat="45.78489" lon="5.66768">
        <ele>293</ele>
        <time>2022-01-19T23:25:59Z</time>
      </trkpt>
      <trkpt lat="45.78477" lon="5.66749">
        <ele>293</ele>
        <time>2022-01-19T23:26:03Z</time>
      </trkpt>
      <trkpt lat="45.78463" lon="5.66732">
        <ele>293</ele>
        <time>2022-01-19T23:26:08Z</time>
      </trkpt>
      <trkpt lat="45.78451" lon="5.6678">
        <ele>289</ele>
        <time>2022-01-19T23:26:16Z</time>
      </trkpt>
      <trkpt lat="45.78444" lon="5.66814">
        <ele>286</ele>
        <time>2022-01-19T23:26:22Z</time>
      </trkpt>
      <trkpt lat="45.78441" lon="5.66832">
        <ele>285</ele>
        <time>2022-01-19T23:26:25Z</time>
      </trkpt>
      <trkpt lat="45.78435" lon="5.66862">
        <ele>284</ele>
        <time>2022-01-19T23:26:30Z</time>
      </trkpt>
      <trkpt lat="45.78426" lon="5.66883">
        <ele>283</ele>
        <time>2022-01-19T23:26:34Z</time>
      </trkpt>
      <trkpt lat="45.78421" lon="5.669">
        <ele>282</ele>
        <time>2022-01-19T23:26:37Z</time>
      </trkpt>
      <trkpt lat="45.78419" lon="5.6692">
        <ele>282</ele>
        <time>2022-01-19T23:26:40Z</time>
      </trkpt>
      <trkpt lat="45.78418" lon="5.66948">
        <ele>282</ele>
        <time>2022-01-19T23:26:45Z</time>
      </trkpt>
      <trkpt lat="45.78414" lon="5.6697">
        <ele>281</ele>
        <time>2022-01-19T23:26:48Z</time>
      </trkpt>
      <trkpt lat="45.78409" lon="5.66983">
        <ele>280</ele>
        <time>2022-01-19T23:26:51Z</time>
      </trkpt>
      <trkpt lat="45.784" lon="5.66983">
        <ele>279</ele>
        <time>2022-01-19T23:26:53Z</time>
      </trkpt>
      <trkpt lat="45.78339" lon="5.66961">
        <ele>271</ele>
        <time>2022-01-19T23:27:08Z</time>
      </trkpt>
      <trkpt lat="45.78299" lon="5.66937">
        <ele>266</ele>
        <time>2022-01-19T23:27:18Z</time>
      </trkpt>
      <trkpt lat="45.78296" lon="5.66925">
        <ele>267</ele>
        <time>2022-01-19T23:27:20Z</time>
      </trkpt>
      <trkpt lat="45.78294" lon="5.66796">
        <ele>270</ele>
        <time>2022-01-19T23:27:41Z</time>
      </trkpt>
      <trkpt lat="45.78274" lon="5.66794">
        <ele>268</ele>
        <time>2022-01-19T23:27:46Z</time>
      </trkpt>
      <trkpt lat="45.7824" lon="5.66782">
        <ele>264</ele>
        <time>2022-01-19T23:27:54Z</time>
      </trkpt>
      <trkpt lat="45.78222" lon="5.66772">
        <ele>262</ele>
        <time>2022-01-19T23:27:58Z</time>
      </trkpt>
      <trkpt lat="45.78194" lon="5.66749">
        <ele>259</ele>
        <time>2022-01-19T23:28:06Z</time>
      </trkpt>
      <trkpt lat="45.78175" lon="5.66728">
        <ele>260</ele>
        <time>2022-01-19T23:28:11Z</time>
      </trkpt>
      <trkpt lat="45.78164" lon="5.6672">
        <ele>260</ele>
        <time>2022-01-19T23:28:14Z</time>
      </trkpt>
      <trkpt lat="45.78157" lon="5.66718">
        <ele>260</ele>
        <time>2022-01-19T23:28:16Z</time>
      </trkpt>
      <trkpt lat="45.78148" lon="5.66719">
        <ele>258</ele>
        <time>2022-01-19T23:28:18Z</time>
      </trkpt>
      <trkpt lat="45.78141" lon="5.66724">
        <ele>257</ele>
        <time>2022-01-19T23:28:20Z</time>
      </trkpt>
      <trkpt lat="45.78127" lon="5.66746">
        <ele>251</ele>
        <time>2022-01-19T23:28:25Z</time>
      </trkpt>
      <trkpt lat="45.78119" lon="5.66751">
        <ele>250</ele>
        <time>2022-01-19T23:28:27Z</time>
      </trkpt>
      <trkpt lat="45.78113" lon="5.66751">
        <ele>249</ele>
        <time>2022-01-19T23:28:28Z</time>
      </trkpt>
      <trkpt lat="45.78107" lon="5.66744">
        <ele>249</ele>
        <time>2022-01-19T23:28:30Z</time>
      </trkpt>
      <trkpt lat="45.78098" lon="5.66738">
        <ele>249</ele>
        <time>2022-01-19T23:28:32Z</time>
      </trkpt>
      <trkpt lat="45.78076" lon="5.6672">
        <ele>248</ele>
        <time>2022-01-19T23:28:38Z</time>
      </trkpt>
      <trkpt lat="45.78057" lon="5.66703">
        <ele>248</ele>
        <time>2022-01-19T23:28:43Z</time>
      </trkpt>
      <trkpt lat="45.78044" lon="5.66698">
        <ele>246</ele>
        <time>2022-01-19T23:28:47Z</time>
      </trkpt>
      <trkpt lat="45.7803" lon="5.66696">
        <ele>245</ele>
        <time>2022-01-19T23:28:50Z</time>
      </trkpt>
      <trkpt lat="45.77957" lon="5.66697">
        <ele>236</ele>
        <time>2022-01-19T23:29:07Z</time>
      </trkpt>
      <trkpt lat="45.77944" lon="5.66686">
        <ele>236</ele>
        <time>2022-01-19T23:29:10Z</time>
      </trkpt>
      <trkpt lat="45.77834" lon="5.66469">
        <ele>238</ele>
        <time>2022-01-19T23:29:54Z</time>
      </trkpt>
      <trkpt lat="45.77825" lon="5.6644">
        <ele>239</ele>
        <time>2022-01-19T23:29:59Z</time>
      </trkpt>
      <trkpt lat="45.77824" lon="5.66405">
        <ele>240</ele>
        <time>2022-01-19T23:30:05Z</time>
      </trkpt>
      <trkpt lat="45.77825" lon="5.66368">
        <ele>238</ele>
        <time>2022-01-19T23:30:11Z</time>
      </trkpt>
      <trkpt lat="45.77827" lon="5.66318">
        <ele>236</ele>
        <time>2022-01-19T23:30:19Z</time>
      </trkpt>
      <trkpt lat="45.77831" lon="5.66262">
        <ele>236</ele>
        <time>2022-01-19T23:30:28Z</time>
      </trkpt>
      <trkpt lat="45.77834" lon="5.66212">
        <ele>236</ele>
        <time>2022-01-19T23:30:37Z</time>
      </trkpt>
      <trkpt lat="45.77844" lon="5.66153">
        <ele>238</ele>
        <time>2022-01-19T23:30:46Z</time>
      </trkpt>
      <trkpt lat="45.77819" lon="5.66154">
        <ele>236</ele>
        <time>2022-01-19T23:30:52Z</time>
      </trkpt>
      <trkpt lat="45.77807" lon="5.6615">
        <ele>235</ele>
        <time>2022-01-19T23:30:55Z</time>
      </trkpt>
      <trkpt lat="45.77743" lon="5.66102">
        <ele>233</ele>
        <time>2022-01-19T23:31:12Z</time>
      </trkpt>
      <trkpt lat="45.77703" lon="5.66083">
        <ele>231</ele>
        <time>2022-01-19T23:31:22Z</time>
      </trkpt>
      <trkpt lat="45.77683" lon="5.66116">
        <ele>229</ele>
        <time>2022-01-19T23:31:29Z</time>
      </trkpt>
      <trkpt lat="45.77637" lon="5.66205">
        <ele>228</ele>
        <time>2022-01-19T23:31:47Z</time>
      </trkpt>
      <trkpt lat="45.77597" lon="5.66278">
        <ele>228</ele>
        <time>2022-01-19T23:32:02Z</time>
      </trkpt>
      <trkpt lat="45.77567" lon="5.66332">
        <ele>231</ele>
        <time>2022-01-19T23:32:13Z</time>
      </trkpt>
      <trkpt lat="45.77557" lon="5.6635">
        <ele>233</ele>
        <time>2022-01-19T23:32:17Z</time>
      </trkpt>
      <trkpt lat="45.77552" lon="5.66365">
        <ele>236</ele>
        <time>2022-01-19T23:32:20Z</time>
      </trkpt>
      <trkpt lat="45.77541" lon="5.66366">
        <ele>238</ele>
        <time>2022-01-19T23:32:22Z</time>
      </trkpt>
      <trkpt lat="45.77521" lon="5.66358">
        <ele>241</ele>
        <time>2022-01-19T23:32:27Z</time>
      </trkpt>
      <trkpt lat="45.77471" lon="5.66328">
        <ele>241</ele>
        <time>2022-01-19T23:32:40Z</time>
      </trkpt>
      <trkpt lat="45.77454" lon="5.66319">
        <ele>241</ele>
        <time>2022-01-19T23:32:44Z</time>
      </trkpt>
      <trkpt lat="45.77421" lon="5.66308">
        <ele>241</ele>
        <time>2022-01-19T23:32:52Z</time>
      </trkpt>
      <trkpt lat="45.77403" lon="5.66303">
        <ele>241</ele>
        <time>2022-01-19T23:32:56Z</time>
      </trkpt>
      <trkpt lat="45.77381" lon="5.66302">
        <ele>241</ele>
        <time>2022-01-19T23:33:02Z</time>
      </trkpt>
      <trkpt lat="45.77363" lon="5.66304">
        <ele>242</ele>
        <time>2022-01-19T23:33:06Z</time>
      </trkpt>
      <trkpt lat="45.77314" lon="5.66316">
        <ele>245</ele>
        <time>2022-01-19T23:33:17Z</time>
      </trkpt>
      <trkpt lat="45.77296" lon="5.66318">
        <ele>244</ele>
        <time>2022-01-19T23:33:22Z</time>
      </trkpt>
      <trkpt lat="45.77283" lon="5.66298">
        <ele>240</ele>
        <time>2022-01-19T23:33:26Z</time>
      </trkpt>
      <trkpt lat="45.77274" lon="5.66281">
        <ele>237</ele>
        <time>2022-01-19T23:33:29Z</time>
      </trkpt>
      <trkpt lat="45.7727" lon="5.66269">
        <ele>236</ele>
        <time>2022-01-19T23:33:32Z</time>
      </trkpt>
      <trkpt lat="45.77266" lon="5.66243">
        <ele>233</ele>
        <time>2022-01-19T23:33:36Z</time>
      </trkpt>
      <trkpt lat="45.77258" lon="5.662">
        <ele>232</ele>
        <time>2022-01-19T23:33:43Z</time>
      </trkpt>
      <trkpt lat="45.77257" lon="5.66185">
        <ele>231</ele>
        <time>2022-01-19T23:33:46Z</time>
      </trkpt>
      <trkpt lat="45.77257" lon="5.66156">
        <ele>230</ele>
        <time>2022-01-19T23:33:50Z</time>
      </trkpt>
      <trkpt lat="45.77255" lon="5.66146">
        <ele>230</ele>
        <time>2022-01-19T23:33:52Z</time>
      </trkpt>
      <trkpt lat="45.7725" lon="5.66135">
        <ele>230</ele>
        <time>2022-01-19T23:33:54Z</time>
      </trkpt>
      <trkpt lat="45.77242" lon="5.66126">
        <ele>230</ele>
        <time>2022-01-19T23:33:57Z</time>
      </trkpt>
      <trkpt lat="45.77234" lon="5.66123">
        <ele>230</ele>
        <time>2022-01-19T23:33:59Z</time>
      </trkpt>
      <trkpt lat="45.77225" lon="5.66124">
        <ele>230</ele>
        <time>2022-01-19T23:34:01Z</time>
      </trkpt>
      <trkpt lat="45.77216" lon="5.66128">
        <ele>230</ele>
        <time>2022-01-19T23:34:03Z</time>
      </trkpt>
      <trkpt lat="45.77208" lon="5.66137">
        <ele>230</ele>
        <time>2022-01-19T23:34:05Z</time>
      </trkpt>
      <trkpt lat="45.77201" lon="5.66146">
        <ele>231</ele>
        <time>2022-01-19T23:34:07Z</time>
      </trkpt>
      <trkpt lat="45.77194" lon="5.66155">
        <ele>231</ele>
        <time>2022-01-19T23:34:10Z</time>
      </trkpt>
      <trkpt lat="45.77172" lon="5.66168">
        <ele>231</ele>
        <time>2022-01-19T23:34:15Z</time>
      </trkpt>
      <trkpt lat="45.77124" lon="5.66211">
        <ele>231</ele>
        <time>2022-01-19T23:34:28Z</time>
      </trkpt>
      <trkpt lat="45.77116" lon="5.66222">
        <ele>231</ele>
        <time>2022-01-19T23:34:31Z</time>
      </trkpt>
      <trkpt lat="45.77112" lon="5.66235">
        <ele>231</ele>
        <time>2022-01-19T23:34:33Z</time>
      </trkpt>
      <trkpt lat="45.771" lon="5.66258">
        <ele>232</ele>
        <time>2022-01-19T23:34:38Z</time>
      </trkpt>
      <trkpt lat="45.77074" lon="5.66294">
        <ele>238</ele>
        <time>2022-01-19T23:34:46Z</time>
      </trkpt>
      <trkpt lat="45.77065" lon="5.66303">
        <ele>239</ele>
        <time>2022-01-19T23:34:49Z</time>
      </trkpt>
      <trkpt lat="45.77055" lon="5.66307">
        <ele>240</ele>
        <time>2022-01-19T23:34:51Z</time>
      </trkpt>
      <trkpt lat="45.77036" lon="5.66301">
        <ele>240</ele>
        <time>2022-01-19T23:34:56Z</time>
      </trkpt>
      <trkpt lat="45.76981" lon="5.66299">
        <ele>243</ele>
        <time>2022-01-19T23:35:09Z</time>
      </trkpt>
      <trkpt lat="45.76963" lon="5.66296">
        <ele>244</ele>
        <time>2022-01-19T23:35:13Z</time>
      </trkpt>
      <trkpt lat="45.76899" lon="5.66292">
        <ele>246</ele>
        <time>2022-01-19T23:35:28Z</time>
      </trkpt>
      <trkpt lat="45.76834" lon="5.66281">
        <ele>245</ele>
        <time>2022-01-19T23:35:43Z</time>
      </trkpt>
      <trkpt lat="45.76797" lon="5.66274">
        <ele>246</ele>
        <time>2022-01-19T23:35:52Z</time>
      </trkpt>
      <trkpt lat="45.76765" lon="5.66274">
        <ele>248</ele>
        <time>2022-01-19T23:35:59Z</time>
      </trkpt>
      <trkpt lat="45.76724" lon="5.66279">
        <ele>250</ele>
        <time>2022-01-19T23:36:09Z</time>
      </trkpt>
      <trkpt lat="45.76698" lon="5.66275">
        <ele>249</ele>
        <time>2022-01-19T23:36:15Z</time>
      </trkpt>
      <trkpt lat="45.76659" lon="5.66277">
        <ele>251</ele>
        <time>2022-01-19T23:36:24Z</time>
      </trkpt>
      <trkpt lat="45.76537" lon="5.66303">
        <ele>257</ele>
        <time>2022-01-19T23:36:53Z</time>
      </trkpt>
      <trkpt lat="45.76496" lon="5.66319">
        <ele>259</ele>
        <time>2022-01-19T23:37:03Z</time>
      </trkpt>
      <trkpt lat="45.76441" lon="5.66348">
        <ele>260</ele>
        <time>2022-01-19T23:37:17Z</time>
      </trkpt>
      <trkpt lat="45.76389" lon="5.6638">
        <ele>261</ele>
        <time>2022-01-19T23:37:30Z</time>
      </trkpt>
      <trkpt lat="45.76381" lon="5.66401">
        <ele>262</ele>
        <time>2022-01-19T23:37:34Z</time>
      </trkpt>
      <trkpt lat="45.76411" lon="5.66387">
        <ele>262</ele>
        <time>2022-01-19T23:37:41Z</time>
      </trkpt>
      <trkpt lat="45.76432" lon="5.66381">
        <ele>263</ele>
        <time>2022-01-19T23:37:46Z</time>
      </trkpt>
      <trkpt lat="45.76446" lon="5.66377">
        <ele>263</ele>
        <time>2022-01-19T23:37:50Z</time>
      </trkpt>
      <trkpt lat="45.76475" lon="5.66376">
        <ele>264</ele>
        <time>2022-01-19T23:37:56Z</time>
      </trkpt>
      <trkpt lat="45.76482" lon="5.66378">
        <ele>265</ele>
        <time>2022-01-19T23:37:58Z</time>
      </trkpt>
      <trkpt lat="45.7649" lon="5.66384">
        <ele>266</ele>
        <time>2022-01-19T23:38:00Z</time>
      </trkpt>
      <trkpt lat="45.765" lon="5.66397">
        <ele>267</ele>
        <time>2022-01-19T23:38:03Z</time>
      </trkpt>
      <trkpt lat="45.76511" lon="5.66407">
        <ele>269</ele>
        <time>2022-01-19T23:38:06Z</time>
      </trkpt>
      <trkpt lat="45.76518" lon="5.6645">
        <ele>270</ele>
        <time>2022-01-19T23:38:13Z</time>
      </trkpt>
      <trkpt lat="45.76521" lon="5.66478">
        <ele>270</ele>
        <time>2022-01-19T23:38:18Z</time>
      </trkpt>
      <trkpt lat="45.76521" lon="5.66495">
        <ele>269</ele>
        <time>2022-01-19T23:38:21Z</time>
      </trkpt>
      <trkpt lat="45.7652" lon="5.66508">
        <ele>269</ele>
        <time>2022-01-19T23:38:23Z</time>
      </trkpt>
      <trkpt lat="45.76517" lon="5.66526">
        <ele>270</ele>
        <time>2022-01-19T23:38:26Z</time>
      </trkpt>
      <trkpt lat="45.7651" lon="5.66555">
        <ele>270</ele>
        <time>2022-01-19T23:38:31Z</time>
      </trkpt>
      <trkpt lat="45.76492" lon="5.66608">
        <ele>272</ele>
        <time>2022-01-19T23:38:41Z</time>
      </trkpt>
      <trkpt lat="45.76485" lon="5.66622">
        <ele>272</ele>
        <time>2022-01-19T23:38:43Z</time>
      </trkpt>
      <trkpt lat="45.76469" lon="5.66643">
        <ele>272</ele>
        <time>2022-01-19T23:38:48Z</time>
      </trkpt>
      <trkpt lat="45.7645" lon="5.66661">
        <ele>272</ele>
        <time>2022-01-19T23:38:54Z</time>
      </trkpt>
      <trkpt lat="45.7642" lon="5.66686">
        <ele>273</ele>
        <time>2022-01-19T23:39:02Z</time>
      </trkpt>
      <trkpt lat="45.76403" lon="5.66701">
        <ele>273</ele>
        <time>2022-01-19T23:39:07Z</time>
      </trkpt>
      <trkpt lat="45.76391" lon="5.66715">
        <ele>274</ele>
        <time>2022-01-19T23:39:10Z</time>
      </trkpt>
      <trkpt lat="45.76375" lon="5.66738">
        <ele>275</ele>
        <time>2022-01-19T23:39:15Z</time>
      </trkpt>
      <trkpt lat="45.76341" lon="5.66797">
        <ele>278</ele>
        <time>2022-01-19T23:39:28Z</time>
      </trkpt>
      <trkpt lat="45.76334" lon="5.66804">
        <ele>278</ele>
        <time>2022-01-19T23:39:30Z</time>
      </trkpt>
      <trkpt lat="45.76325" lon="5.66808">
        <ele>278</ele>
        <time>2022-01-19T23:39:32Z</time>
      </trkpt>
      <trkpt lat="45.76274" lon="5.66823">
        <ele>279</ele>
        <time>2022-01-19T23:39:44Z</time>
      </trkpt>
      <trkpt lat="45.76212" lon="5.66846">
        <ele>279</ele>
        <time>2022-01-19T23:39:59Z</time>
      </trkpt>
      <trkpt lat="45.76186" lon="5.66853">
        <ele>279</ele>
        <time>2022-01-19T23:40:05Z</time>
      </trkpt>
      <trkpt lat="45.76176" lon="5.66859">
        <ele>279</ele>
        <time>2022-01-19T23:40:08Z</time>
      </trkpt>
      <trkpt lat="45.76164" lon="5.66868">
        <ele>279</ele>
        <time>2022-01-19T23:40:11Z</time>
      </trkpt>
      <trkpt lat="45.76128" lon="5.669">
        <ele>278</ele>
        <time>2022-01-19T23:40:21Z</time>
      </trkpt>
      <trkpt lat="45.76104" lon="5.66925">
        <ele>277</ele>
        <time>2022-01-19T23:40:28Z</time>
      </trkpt>
      <trkpt lat="45.7606" lon="5.66981">
        <ele>277</ele>
        <time>2022-01-19T23:40:42Z</time>
      </trkpt>
      <trkpt lat="45.76048" lon="5.66994">
        <ele>276</ele>
        <time>2022-01-19T23:40:45Z</time>
      </trkpt>
      <trkpt lat="45.76035" lon="5.67005">
        <ele>276</ele>
        <time>2022-01-19T23:40:49Z</time>
      </trkpt>
      <trkpt lat="45.76003" lon="5.6702">
        <ele>274</ele>
        <time>2022-01-19T23:40:57Z</time>
      </trkpt>
      <trkpt lat="45.75985" lon="5.67032">
        <ele>274</ele>
        <time>2022-01-19T23:41:01Z</time>
      </trkpt>
      <trkpt lat="45.75975" lon="5.67042">
        <ele>274</ele>
        <time>2022-01-19T23:41:04Z</time>
      </trkpt>
      <trkpt lat="45.75956" lon="5.67064">
        <ele>274</ele>
        <time>2022-01-19T23:41:10Z</time>
      </trkpt>
      <trkpt lat="45.75942" lon="5.67083">
        <ele>275</ele>
        <time>2022-01-19T23:41:14Z</time>
      </trkpt>
      <trkpt lat="45.75928" lon="5.67105">
        <ele>276</ele>
        <time>2022-01-19T23:41:19Z</time>
      </trkpt>
      <trkpt lat="45.75919" lon="5.67123">
        <ele>277</ele>
        <time>2022-01-19T23:41:23Z</time>
      </trkpt>
      <trkpt lat="45.75902" lon="5.67148">
        <ele>279</ele>
        <time>2022-01-19T23:41:28Z</time>
      </trkpt>
      <trkpt lat="45.75881" lon="5.67182">
        <ele>281</ele>
        <time>2022-01-19T23:41:36Z</time>
      </trkpt>
      <trkpt lat="45.75868" lon="5.672">
        <ele>281</ele>
        <time>2022-01-19T23:41:40Z</time>
      </trkpt>
      <trkpt lat="45.75852" lon="5.67233">
        <ele>282</ele>
        <time>2022-01-19T23:41:47Z</time>
      </trkpt>
      <trkpt lat="45.75835" lon="5.67288">
        <ele>282</ele>
        <time>2022-01-19T23:41:56Z</time>
      </trkpt>
      <trkpt lat="45.7583" lon="5.67298">
        <ele>282</ele>
        <time>2022-01-19T23:41:58Z</time>
      </trkpt>
      <trkpt lat="45.75823" lon="5.67305">
        <ele>282</ele>
        <time>2022-01-19T23:42:00Z</time>
      </trkpt>
      <trkpt lat="45.75813" lon="5.67307">
        <ele>281</ele>
        <time>2022-01-19T23:42:03Z</time>
      </trkpt>
      <trkpt lat="45.75764" lon="5.67305">
        <ele>279</ele>
        <time>2022-01-19T23:42:14Z</time>
      </trkpt>
      <trkpt lat="45.75749" lon="5.67302">
        <ele>278</ele>
        <time>2022-01-19T23:42:18Z</time>
      </trkpt>
      <trkpt lat="45.7574" lon="5.67295">
        <ele>278</ele>
        <time>2022-01-19T23:42:20Z</time>
      </trkpt>
      <trkpt lat="45.75729" lon="5.67315">
        <ele>278</ele>
        <time>2022-01-19T23:42:24Z</time>
      </trkpt>
      <trkpt lat="45.75649" lon="5.67434">
        <ele>283</ele>
        <time>2022-01-19T23:42:51Z</time>
      </trkpt>
      <trkpt lat="45.75621" lon="5.67481">
        <ele>284</ele>
        <time>2022-01-19T23:43:01Z</time>
      </trkpt>
      <trkpt lat="45.75595" lon="5.67535">
        <ele>283</ele>
        <time>2022-01-19T23:43:12Z</time>
      </trkpt>
      <trkpt lat="45.75587" lon="5.6756">
        <ele>283</ele>
        <time>2022-01-19T23:43:16Z</time>
      </trkpt>
      <trkpt lat="45.7557" lon="5.67621">
        <ele>283</ele>
        <time>2022-01-19T23:43:27Z</time>
      </trkpt>
      <trkpt lat="45.75551" lon="5.67676">
        <ele>282</ele>
        <time>2022-01-19T23:43:37Z</time>
      </trkpt>
      <trkpt lat="45.75545" lon="5.67692">
        <ele>283</ele>
        <time>2022-01-19T23:43:40Z</time>
      </trkpt>
      <trkpt lat="45.75537" lon="5.67722">
        <ele>283</ele>
        <time>2022-01-19T23:43:45Z</time>
      </trkpt>
      <trkpt lat="45.75534" lon="5.67757">
        <ele>284</ele>
        <time>2022-01-19T23:43:51Z</time>
      </trkpt>
      <trkpt lat="45.75537" lon="5.67862">
        <ele>285</ele>
        <time>2022-01-19T23:44:08Z</time>
      </trkpt>
      <trkpt lat="45.75532" lon="5.67897">
        <ele>286</ele>
        <time>2022-01-19T23:44:14Z</time>
      </trkpt>
      <trkpt lat="45.75525" lon="5.67931">
        <ele>287</ele>
        <time>2022-01-19T23:44:20Z</time>
      </trkpt>
      <trkpt lat="45.75494" lon="5.68015">
        <ele>290</ele>
        <time>2022-01-19T23:44:35Z</time>
      </trkpt>
      <trkpt lat="45.75479" lon="5.68042">
        <ele>291</ele>
        <time>2022-01-19T23:44:41Z</time>
      </trkpt>
      <trkpt lat="45.75471" lon="5.6805">
        <ele>291</ele>
        <time>2022-01-19T23:44:43Z</time>
      </trkpt>
      <trkpt lat="45.7547" lon="5.6806">
        <ele>291</ele>
        <time>2022-01-19T23:44:45Z</time>
      </trkpt>
      <trkpt lat="45.75472" lon="5.68069">
        <ele>291</ele>
        <time>2022-01-19T23:44:46Z</time>
      </trkpt>
      <trkpt lat="45.75484" lon="5.68075">
        <ele>291</ele>
        <time>2022-01-19T23:44:49Z</time>
      </trkpt>
      <trkpt lat="45.755" lon="5.68091">
        <ele>292</ele>
        <time>2022-01-19T23:44:54Z</time>
      </trkpt>
      <trkpt lat="45.75518" lon="5.681">
        <ele>291</ele>
        <time>2022-01-19T23:44:58Z</time>
      </trkpt>
      <trkpt lat="45.7557" lon="5.68146">
        <ele>289</ele>
        <time>2022-01-19T23:45:13Z</time>
      </trkpt>
      <trkpt lat="45.75602" lon="5.68166">
        <ele>289</ele>
        <time>2022-01-19T23:45:21Z</time>
      </trkpt>
      <trkpt lat="45.75569" lon="5.68367">
        <ele>288</ele>
        <time>2022-01-19T23:45:54Z</time>
      </trkpt>
      <trkpt lat="45.75576" lon="5.68381">
        <ele>287</ele>
        <time>2022-01-19T23:45:57Z</time>
      </trkpt>
      <trkpt lat="45.75616" lon="5.68486">
        <ele>284</ele>
        <time>2022-01-19T23:46:17Z</time>
      </trkpt>
      <trkpt lat="45.75627" lon="5.68519">
        <ele>284</ele>
        <time>2022-01-19T23:46:23Z</time>
      </trkpt>
      <trkpt lat="45.75658" lon="5.68623">
        <ele>284</ele>
        <time>2022-01-19T23:46:41Z</time>
      </trkpt>
      <trkpt lat="45.75783" lon="5.68623">
        <ele>281</ele>
        <time>2022-01-19T23:47:10Z</time>
      </trkpt>
      <trkpt lat="45.75823" lon="5.68626">
        <ele>281</ele>
        <time>2022-01-19T23:47:20Z</time>
      </trkpt>
      <trkpt lat="45.75822" lon="5.68657">
        <ele>281</ele>
        <time>2022-01-19T23:47:25Z</time>
      </trkpt>
      <trkpt lat="45.75816" lon="5.68716">
        <ele>280</ele>
        <time>2022-01-19T23:47:34Z</time>
      </trkpt>
      <trkpt lat="45.7581" lon="5.68757">
        <ele>279</ele>
        <time>2022-01-19T23:47:41Z</time>
      </trkpt>
      <trkpt lat="45.75807" lon="5.68776">
        <ele>279</ele>
        <time>2022-01-19T23:47:44Z</time>
      </trkpt>
      <trkpt lat="45.75797" lon="5.6881">
        <ele>279</ele>
        <time>2022-01-19T23:47:50Z</time>
      </trkpt>
      <trkpt lat="45.75774" lon="5.68862">
        <ele>280</ele>
        <time>2022-01-19T23:48:00Z</time>
      </trkpt>
      <trkpt lat="45.7578" lon="5.68873">
        <ele>280</ele>
        <time>2022-01-19T23:48:03Z</time>
      </trkpt>
      <trkpt lat="45.75782" lon="5.68884">
        <ele>280</ele>
        <time>2022-01-19T23:48:05Z</time>
      </trkpt>
      <trkpt lat="45.75777" lon="5.68901">
        <ele>280</ele>
        <time>2022-01-19T23:48:08Z</time>
      </trkpt>
      <trkpt lat="45.75799" lon="5.68908">
        <ele>280</ele>
        <time>2022-01-19T23:48:13Z</time>
      </trkpt>
      <trkpt lat="45.75812" lon="5.68909">
        <ele>280</ele>
        <time>2022-01-19T23:48:16Z</time>
      </trkpt>
      <trkpt lat="45.75804" lon="5.6893">
        <ele>281</ele>
        <time>2022-01-19T23:48:20Z</time>
      </trkpt>
    </trkseg>
  </trk>
</gpx>